sensor_id;sensor_type;location;lat;lon;timestamp;pressure;altitude;pressure_sealevel;temperature
22322;BMP180;11328;53.928;18.522;2022-12-07T00:01:42;99419.00;;;3.80
22322;BMP180;11328;53.928;18.522;2022-12-07T00:04:15;99410.00;;;3.80
22322;BMP180;11328;53.928;18.522;2022-12-07T00:06:46;99421.00;;;3.80
22322;BMP180;11328;53.928;18.522;2022-12-07T00:09:17;99410.00;;;3.90
22322;BMP180;11328;53.928;18.522;2022-12-07T00:11:48;99406.00;;;4.00
22322;BMP180;11328;53.928;18.522;2022-12-07T00:14:18;99407.00;;;4.00
22322;BMP180;11328;53.928;18.522;2022-12-07T00:16:49;99387.00;;;4.00
22322;BMP180;11328;53.928;18.522;2022-12-07T00:19:19;99407.00;;;4.10
22322;BMP180;11328;53.928;18.522;2022-12-07T00:21:47;99402.00;;;4.20
22322;BMP180;11328;53.928;18.522;2022-12-07T00:24:14;99403.00;;;4.20
22322;BMP180;11328;53.928;18.522;2022-12-07T00:26:42;99405.00;;;4.20
22322;BMP180;11328;53.928;18.522;2022-12-07T00:29:21;99400.00;;;4.00
22322;BMP180;11328;53.928;18.522;2022-12-07T00:31:49;99404.00;;;3.90
22322;BMP180;11328;53.928;18.522;2022-12-07T00:34:21;99397.00;;;3.90
22322;BMP180;11328;53.928;18.522;2022-12-07T00:36:49;99400.00;;;3.90
22322;BMP180;11328;53.928;18.522;2022-12-07T00:39:16;99382.00;;;3.90
22322;BMP180;11328;53.928;18.522;2022-12-07T00:41:43;99385.00;;;4.00
22322;BMP180;11328;53.928;18.522;2022-12-07T00:44:10;99388.00;;;4.00
22322;BMP180;11328;53.928;18.522;2022-12-07T00:46:37;99389.00;;;3.90
22322;BMP180;11328;53.928;18.522;2022-12-07T00:49:04;99379.00;;;4.00
22322;BMP180;11328;53.928;18.522;2022-12-07T00:51:32;99364.00;;;4.00
22322;BMP180;11328;53.928;18.522;2022-12-07T00:53:59;99375.00;;;4.00
22322;BMP180;11328;53.928;18.522;2022-12-07T00:56:28;99383.00;;;4.10
22322;BMP180;11328;53.928;18.522;2022-12-07T00:59:01;99382.00;;;4.10
22322;BMP180;11328;53.928;18.522;2022-12-07T01:01:32;99380.00;;;4.10
22322;BMP180;11328;53.928;18.522;2022-12-07T01:04:00;99383.00;;;4.20
22322;BMP180;11328;53.928;18.522;2022-12-07T01:06:29;99378.00;;;4.20
22322;BMP180;11328;53.928;18.522;2022-12-07T01:08:57;99369.00;;;4.20
22322;BMP180;11328;53.928;18.522;2022-12-07T01:11:28;99371.00;;;4.20
22322;BMP180;11328;53.928;18.522;2022-12-07T01:13:57;99342.00;;;4.20
22322;BMP180;11328;53.928;18.522;2022-12-07T01:16:27;99365.00;;;4.20
22322;BMP180;11328;53.928;18.522;2022-12-07T01:18:57;99338.00;;;4.10
22322;BMP180;11328;53.928;18.522;2022-12-07T01:21:30;99362.00;;;4.10
22322;BMP180;11328;53.928;18.522;2022-12-07T01:24:03;99359.00;;;4.10
22322;BMP180;11328;53.928;18.522;2022-12-07T01:26:30;99355.00;;;4.10
22322;BMP180;11328;53.928;18.522;2022-12-07T01:28:57;99357.00;;;4.10
22322;BMP180;11328;53.928;18.522;2022-12-07T01:31:27;99359.00;;;4.10
22322;BMP180;11328;53.928;18.522;2022-12-07T01:33:57;99355.00;;;4.10
22322;BMP180;11328;53.928;18.522;2022-12-07T01:36:34;99345.00;;;4.10
22322;BMP180;11328;53.928;18.522;2022-12-07T01:39:06;99344.00;;;4.10
22322;BMP180;11328;53.928;18.522;2022-12-07T01:41:38;99322.00;;;4.10
22322;BMP180;11328;53.928;18.522;2022-12-07T01:46:54;99339.00;;;4.00
22322;BMP180;11328;53.928;18.522;2022-12-07T01:49:33;99332.00;;;3.90
22322;BMP180;11328;53.928;18.522;2022-12-07T01:52:30;99333.00;;;4.00
22322;BMP180;11328;53.928;18.522;2022-12-07T01:55:04;99326.00;;;4.10
22322;BMP180;11328;53.928;18.522;2022-12-07T01:57:34;99331.00;;;4.10
22322;BMP180;11328;53.928;18.522;2022-12-07T02:00:04;99304.00;;;4.00
22322;BMP180;11328;53.928;18.522;2022-12-07T02:03:13;99323.00;;;4.20
22322;BMP180;11328;53.928;18.522;2022-12-07T02:05:43;99325.00;;;4.30
22322;BMP180;11328;53.928;18.522;2022-12-07T02:08:12;99321.00;;;4.40
22322;BMP180;11328;53.928;18.522;2022-12-07T02:27:45;99309.00;;;4.60
22322;BMP180;11328;53.928;18.522;2022-12-07T02:30:19;99307.00;;;4.50
22322;BMP180;11328;53.928;18.522;2022-12-07T02:33:05;99287.00;;;4.40
22322;BMP180;11328;53.928;18.522;2022-12-07T02:35:57;99291.00;;;4.30
22322;BMP180;11328;53.928;18.522;2022-12-07T02:39:24;99286.00;;;4.10
22322;BMP180;11328;53.928;18.522;2022-12-07T02:41:55;99274.00;;;4.00
22322;BMP180;11328;53.928;18.522;2022-12-07T02:44:27;99277.00;;;3.80
22322;BMP180;11328;53.928;18.522;2022-12-07T02:47:02;99284.00;;;3.80
22322;BMP180;11328;53.928;18.522;2022-12-07T02:49:31;99278.00;;;3.80
22322;BMP180;11328;53.928;18.522;2022-12-07T02:51:58;99276.00;;;3.80
22322;BMP180;11328;53.928;18.522;2022-12-07T02:54:25;99267.00;;;3.80
22322;BMP180;11328;53.928;18.522;2022-12-07T03:00:06;99266.00;;;3.70
22322;BMP180;11328;53.928;18.522;2022-12-07T03:03:00;99259.00;;;3.70
22322;BMP180;11328;53.928;18.522;2022-12-07T03:06:31;99262.00;;;3.60
22322;BMP180;11328;53.928;18.522;2022-12-07T03:11:56;99247.00;;;3.40
22322;BMP180;11328;53.928;18.522;2022-12-07T03:14:38;99244.00;;;3.50
22322;BMP180;11328;53.928;18.522;2022-12-07T03:17:14;99244.00;;;3.40
22322;BMP180;11328;53.928;18.522;2022-12-07T03:19:44;99253.00;;;3.40
22322;BMP180;11328;53.928;18.522;2022-12-07T03:22:13;99238.00;;;3.40
22322;BMP180;11328;53.928;18.522;2022-12-07T03:24:52;99240.00;;;3.50
22322;BMP180;11328;53.928;18.522;2022-12-07T03:28:11;99243.00;;;3.50
22322;BMP180;11328;53.928;18.522;2022-12-07T03:30:23;99241.00;;;3.60
22322;BMP180;11328;53.928;18.522;2022-12-07T03:33:04;99235.00;;;3.50
22322;BMP180;11328;53.928;18.522;2022-12-07T03:35:49;99233.00;;;3.60
22322;BMP180;11328;53.928;18.522;2022-12-07T03:38:31;99229.00;;;3.60
22322;BMP180;11328;53.928;18.522;2022-12-07T03:41:12;99229.00;;;3.60
22322;BMP180;11328;53.928;18.522;2022-12-07T03:43:41;99234.00;;;3.60
22322;BMP180;11328;53.928;18.522;2022-12-07T03:46:44;99220.00;;;3.60
22322;BMP180;11328;53.928;18.522;2022-12-07T03:49:29;99229.00;;;3.70
22322;BMP180;11328;53.928;18.522;2022-12-07T03:52:28;99224.00;;;3.60
22322;BMP180;11328;53.928;18.522;2022-12-07T03:57:47;99219.00;;;3.60
22322;BMP180;11328;53.928;18.522;2022-12-07T04:00:15;99206.00;;;3.60
22322;BMP180;11328;53.928;18.522;2022-12-07T04:02:43;99218.00;;;3.60
22322;BMP180;11328;53.928;18.522;2022-12-07T04:05:10;99212.00;;;3.60
22322;BMP180;11328;53.928;18.522;2022-12-07T04:07:37;99207.00;;;3.60
22322;BMP180;11328;53.928;18.522;2022-12-07T04:10:05;99206.00;;;3.60
22322;BMP180;11328;53.928;18.522;2022-12-07T04:12:32;99202.00;;;3.70
22322;BMP180;11328;53.928;18.522;2022-12-07T04:14:59;99208.00;;;3.70
22322;BMP180;11328;53.928;18.522;2022-12-07T04:17:26;99203.00;;;3.70
22322;BMP180;11328;53.928;18.522;2022-12-07T04:19:53;99199.00;;;3.80
22322;BMP180;11328;53.928;18.522;2022-12-07T04:22:20;99202.00;;;3.80
22322;BMP180;11328;53.928;18.522;2022-12-07T04:24:47;99201.00;;;3.80
22322;BMP180;11328;53.928;18.522;2022-12-07T04:27:14;99200.00;;;3.80
22322;BMP180;11328;53.928;18.522;2022-12-07T04:29:41;99196.00;;;3.80
22322;BMP180;11328;53.928;18.522;2022-12-07T04:32:08;99195.00;;;3.80
22322;BMP180;11328;53.928;18.522;2022-12-07T04:34:35;99198.00;;;3.80
22322;BMP180;11328;53.928;18.522;2022-12-07T04:37:02;99193.00;;;3.80
22322;BMP180;11328;53.928;18.522;2022-12-07T04:39:32;99192.00;;;3.70
22322;BMP180;11328;53.928;18.522;2022-12-07T04:42:00;99188.00;;;3.70
22322;BMP180;11328;53.928;18.522;2022-12-07T04:44:29;99186.00;;;3.70
22322;BMP180;11328;53.928;18.522;2022-12-07T04:46:56;99177.00;;;3.70
22322;BMP180;11328;53.928;18.522;2022-12-07T04:49:24;99176.00;;;3.70
22322;BMP180;11328;53.928;18.522;2022-12-07T04:51:52;99176.00;;;3.70
22322;BMP180;11328;53.928;18.522;2022-12-07T04:54:19;99171.00;;;3.70
22322;BMP180;11328;53.928;18.522;2022-12-07T04:56:46;99167.00;;;3.70
22322;BMP180;11328;53.928;18.522;2022-12-07T04:59:16;99164.00;;;3.70
22322;BMP180;11328;53.928;18.522;2022-12-07T05:01:43;99157.00;;;3.70
22322;BMP180;11328;53.928;18.522;2022-12-07T05:04:10;99168.00;;;3.70
22322;BMP180;11328;53.928;18.522;2022-12-07T05:06:37;99157.00;;;3.70
22322;BMP180;11328;53.928;18.522;2022-12-07T05:09:04;99162.00;;;3.70
22322;BMP180;11328;53.928;18.522;2022-12-07T05:11:31;99151.00;;;3.70
22322;BMP180;11328;53.928;18.522;2022-12-07T05:14:18;99163.00;;;3.60
22322;BMP180;11328;53.928;18.522;2022-12-07T05:16:49;99154.00;;;3.70
22322;BMP180;11328;53.928;18.522;2022-12-07T05:19:18;99155.00;;;3.70
22322;BMP180;11328;53.928;18.522;2022-12-07T05:21:46;99155.00;;;3.70
22322;BMP180;11328;53.928;18.522;2022-12-07T05:24:15;99160.00;;;3.70
22322;BMP180;11328;53.928;18.522;2022-12-07T05:26:44;99153.00;;;3.70
22322;BMP180;11328;53.928;18.522;2022-12-07T05:29:16;99152.00;;;3.70
22322;BMP180;11328;53.928;18.522;2022-12-07T05:31:44;99146.00;;;3.80
22322;BMP180;11328;53.928;18.522;2022-12-07T05:34:12;99155.00;;;3.80
22322;BMP180;11328;53.928;18.522;2022-12-07T05:36:39;99150.00;;;3.80
22322;BMP180;11328;53.928;18.522;2022-12-07T05:39:07;99149.00;;;3.80
22322;BMP180;11328;53.928;18.522;2022-12-07T05:41:34;99155.00;;;3.80
22322;BMP180;11328;53.928;18.522;2022-12-07T05:44:20;99150.00;;;3.40
22322;BMP180;11328;53.928;18.522;2022-12-07T05:46:47;99146.00;;;3.70
22322;BMP180;11328;53.928;18.522;2022-12-07T05:49:14;99161.00;;;3.70
22322;BMP180;11328;53.928;18.522;2022-12-07T05:51:41;99149.00;;;3.70
22322;BMP180;11328;53.928;18.522;2022-12-07T05:54:08;99135.00;;;3.70
22322;BMP180;11328;53.928;18.522;2022-12-07T05:56:35;99050.00;;;3.80
22322;BMP180;11328;53.928;18.522;2022-12-07T05:59:02;99159.00;;;3.80
22322;BMP180;11328;53.928;18.522;2022-12-07T06:01:53;99142.00;;;3.70
22322;BMP180;11328;53.928;18.522;2022-12-07T06:04:22;99139.00;;;3.70
22322;BMP180;11328;53.928;18.522;2022-12-07T06:06:49;99138.00;;;3.80
22322;BMP180;11328;53.928;18.522;2022-12-07T06:09:18;99141.00;;;3.80
22322;BMP180;11328;53.928;18.522;2022-12-07T06:11:45;99145.00;;;3.80
22322;BMP180;11328;53.928;18.522;2022-12-07T06:14:31;99139.00;;;3.80
22322;BMP180;11328;53.928;18.522;2022-12-07T06:16:59;99140.00;;;3.80
22322;BMP180;11328;53.928;18.522;2022-12-07T06:19:26;99133.00;;;3.80
22322;BMP180;11328;53.928;18.522;2022-12-07T06:21:54;99136.00;;;3.80
22322;BMP180;11328;53.928;18.522;2022-12-07T06:24:21;99131.00;;;3.80
22322;BMP180;11328;53.928;18.522;2022-12-07T06:26:49;99126.00;;;3.80
22322;BMP180;11328;53.928;18.522;2022-12-07T06:29:17;99133.00;;;3.70
22322;BMP180;11328;53.928;18.522;2022-12-07T06:31:47;99130.00;;;3.70
22322;BMP180;11328;53.928;18.522;2022-12-07T06:34:17;99138.00;;;3.70
22322;BMP180;11328;53.928;18.522;2022-12-07T06:36:46;99132.00;;;3.60
22322;BMP180;11328;53.928;18.522;2022-12-07T06:39:19;99129.00;;;3.60
22322;BMP180;11328;53.928;18.522;2022-12-07T06:41:47;99128.00;;;3.60
22322;BMP180;11328;53.928;18.522;2022-12-07T06:44:14;99134.00;;;3.60
22322;BMP180;11328;53.928;18.522;2022-12-07T06:46:41;99128.00;;;3.70
22322;BMP180;11328;53.928;18.522;2022-12-07T06:49:08;99135.00;;;3.60
22322;BMP180;11328;53.928;18.522;2022-12-07T06:51:35;99132.00;;;3.50
22322;BMP180;11328;53.928;18.522;2022-12-07T06:54:03;99120.00;;;3.50
22322;BMP180;11328;53.928;18.522;2022-12-07T06:56:30;99129.00;;;3.50
22322;BMP180;11328;53.928;18.522;2022-12-07T06:58:57;99128.00;;;3.50
22322;BMP180;11328;53.928;18.522;2022-12-07T07:01:24;99118.00;;;3.50
22322;BMP180;11328;53.928;18.522;2022-12-07T07:03:51;99126.00;;;3.50
22322;BMP180;11328;53.928;18.522;2022-12-07T07:06:19;99102.00;;;3.50
22322;BMP180;11328;53.928;18.522;2022-12-07T07:08:45;99125.00;;;3.40
22322;BMP180;11328;53.928;18.522;2022-12-07T07:11:12;99120.00;;;3.40
22322;BMP180;11328;53.928;18.522;2022-12-07T07:13:39;99121.00;;;3.40
22322;BMP180;11328;53.928;18.522;2022-12-07T07:16:07;99121.00;;;3.40
22322;BMP180;11328;53.928;18.522;2022-12-07T07:18:34;99133.00;;;3.30
22322;BMP180;11328;53.928;18.522;2022-12-07T07:21:02;99097.00;;;3.40
22322;BMP180;11328;53.928;18.522;2022-12-07T07:23:29;99128.00;;;3.40
22322;BMP180;11328;53.928;18.522;2022-12-07T07:25:56;99119.00;;;3.40
22322;BMP180;11328;53.928;18.522;2022-12-07T07:28:23;99097.00;;;3.40
22322;BMP180;11328;53.928;18.522;2022-12-07T07:30:50;99122.00;;;3.40
22322;BMP180;11328;53.928;18.522;2022-12-07T07:33:18;99119.00;;;3.30
22322;BMP180;11328;53.928;18.522;2022-12-07T07:35:45;99124.00;;;3.40
22322;BMP180;11328;53.928;18.522;2022-12-07T07:38:11;99125.00;;;3.40
22322;BMP180;11328;53.928;18.522;2022-12-07T07:40:38;99123.00;;;3.40
22322;BMP180;11328;53.928;18.522;2022-12-07T07:43:05;99129.00;;;3.40
22322;BMP180;11328;53.928;18.522;2022-12-07T07:45:32;99128.00;;;3.30
22322;BMP180;11328;53.928;18.522;2022-12-07T07:47:59;99131.00;;;3.40
22322;BMP180;11328;53.928;18.522;2022-12-07T07:50:26;99123.00;;;3.40
22322;BMP180;11328;53.928;18.522;2022-12-07T07:52:53;99124.00;;;3.50
22322;BMP180;11328;53.928;18.522;2022-12-07T07:55:20;99132.00;;;3.50
22322;BMP180;11328;53.928;18.522;2022-12-07T07:57:47;99126.00;;;3.60
22322;BMP180;11328;53.928;18.522;2022-12-07T08:00:21;99105.00;;;3.60
22322;BMP180;11328;53.928;18.522;2022-12-07T08:02:48;99120.00;;;3.50
22322;BMP180;11328;53.928;18.522;2022-12-07T08:05:16;99122.00;;;3.60
22322;BMP180;11328;53.928;18.522;2022-12-07T08:07:43;99130.00;;;3.60
22322;BMP180;11328;53.928;18.522;2022-12-07T08:10:13;99121.00;;;3.50
22322;BMP180;11328;53.928;18.522;2022-12-07T08:12:42;99123.00;;;3.40
22322;BMP180;11328;53.928;18.522;2022-12-07T08:15:30;99094.00;;;3.50
22322;BMP180;11328;53.928;18.522;2022-12-07T08:17:58;99111.00;;;3.50
22322;BMP180;11328;53.928;18.522;2022-12-07T08:20:26;99111.00;;;3.50
22322;BMP180;11328;53.928;18.522;2022-12-07T08:22:53;99111.00;;;3.50
22322;BMP180;11328;53.928;18.522;2022-12-07T08:25:20;99118.00;;;3.30
22322;BMP180;11328;53.928;18.522;2022-12-07T11:01:59;99041.00;;;2.90
22322;BMP180;11328;53.928;18.522;2022-12-07T11:05:16;99031.00;;;2.90
22322;BMP180;11328;53.928;18.522;2022-12-07T11:10:18;99023.00;;;3.10
22322;BMP180;11328;53.928;18.522;2022-12-07T11:15:33;99019.00;;;3.10
22322;BMP180;11328;53.928;18.522;2022-12-07T11:35:36;98992.00;;;3.10
22322;BMP180;11328;53.928;18.522;2022-12-07T11:38:17;98984.00;;;3.30
22322;BMP180;11328;53.928;18.522;2022-12-07T11:40:56;98979.00;;;3.20
22322;BMP180;11328;53.928;18.522;2022-12-07T11:46:51;98977.00;;;3.30
22322;BMP180;11328;53.928;18.522;2022-12-07T11:51:58;98976.00;;;3.30
22322;BMP180;11328;53.928;18.522;2022-12-07T11:54:35;98974.00;;;3.40
22322;BMP180;11328;53.928;18.522;2022-12-07T11:57:18;98973.00;;;3.40
22322;BMP180;11328;53.928;18.522;2022-12-07T11:59:53;98969.00;;;3.50
22322;BMP180;11328;53.928;18.522;2022-12-07T12:02:38;98943.00;;;3.50
22322;BMP180;11328;53.928;18.522;2022-12-07T12:05:21;98950.00;;;3.60
22322;BMP180;11328;53.928;18.522;2022-12-07T12:08:27;98975.00;;;3.60
22322;BMP180;11328;53.928;18.522;2022-12-07T12:18:25;98974.00;;;3.60
22322;BMP180;11328;53.928;18.522;2022-12-07T12:21:20;98971.00;;;3.50
22322;BMP180;11328;53.928;18.522;2022-12-07T12:24:09;98966.00;;;3.40
22322;BMP180;11328;53.928;18.522;2022-12-07T12:26:39;98965.00;;;3.50
22322;BMP180;11328;53.928;18.522;2022-12-07T12:29:31;98965.00;;;3.60
22322;BMP180;11328;53.928;18.522;2022-12-07T12:32:17;98932.00;;;3.60
22322;BMP180;11328;53.928;18.522;2022-12-07T12:42:53;98945.00;;;3.60
22322;BMP180;11328;53.928;18.522;2022-12-07T12:50:35;98948.00;;;3.50
22322;BMP180;11328;53.928;18.522;2022-12-07T12:58:37;98935.00;;;3.50
22322;BMP180;11328;53.928;18.522;2022-12-07T13:03:56;98906.00;;;3.60
22322;BMP180;11328;53.928;18.522;2022-12-07T13:08:59;98912.00;;;3.70
22322;BMP180;11328;53.928;18.522;2022-12-07T13:11:40;98913.00;;;3.60
22322;BMP180;11328;53.928;18.522;2022-12-07T13:14:55;98924.00;;;3.60
22322;BMP180;11328;53.928;18.522;2022-12-07T13:20:06;98924.00;;;3.50
22322;BMP180;11328;53.928;18.522;2022-12-07T13:22:47;98908.00;;;3.50
22322;BMP180;11328;53.928;18.522;2022-12-07T13:25:33;98912.00;;;3.40
22322;BMP180;11328;53.928;18.522;2022-12-07T13:28:19;98894.00;;;3.50
22322;BMP180;11328;53.928;18.522;2022-12-07T13:33:48;98921.00;;;3.50
22322;BMP180;11328;53.928;18.522;2022-12-07T13:36:20;98911.00;;;3.40
22322;BMP180;11328;53.928;18.522;2022-12-07T13:38:56;98920.00;;;3.50
22322;BMP180;11328;53.928;18.522;2022-12-07T13:41:28;98916.00;;;3.50
22322;BMP180;11328;53.928;18.522;2022-12-07T13:44:08;98908.00;;;3.50
22322;BMP180;11328;53.928;18.522;2022-12-07T13:49:26;98899.00;;;3.50
22322;BMP180;11328;53.928;18.522;2022-12-07T13:51:55;98891.00;;;3.40
22322;BMP180;11328;53.928;18.522;2022-12-07T13:54:33;98893.00;;;3.40
22322;BMP180;11328;53.928;18.522;2022-12-07T13:57:09;98901.00;;;3.40
22322;BMP180;11328;53.928;18.522;2022-12-07T13:59:37;98907.00;;;3.40
22322;BMP180;11328;53.928;18.522;2022-12-07T14:02:27;98901.00;;;3.20
22322;BMP180;11328;53.928;18.522;2022-12-07T14:05:31;98898.00;;;3.30
22322;BMP180;11328;53.928;18.522;2022-12-07T14:10:55;98897.00;;;3.30
22322;BMP180;11328;53.928;18.522;2022-12-07T14:18:45;98902.00;;;3.20
22322;BMP180;11328;53.928;18.522;2022-12-07T14:21:19;98890.00;;;3.10
22322;BMP180;11328;53.928;18.522;2022-12-07T14:24:16;98905.00;;;3.10
22322;BMP180;11328;53.928;18.522;2022-12-07T14:26:49;98896.00;;;3.10
22322;BMP180;11328;53.928;18.522;2022-12-07T14:29:20;98898.00;;;3.10
22322;BMP180;11328;53.928;18.522;2022-12-07T14:31:48;98898.00;;;3.20
22322;BMP180;11328;53.928;18.522;2022-12-07T14:34:15;98886.00;;;3.10
22322;BMP180;11328;53.928;18.522;2022-12-07T14:36:42;98898.00;;;3.10
22322;BMP180;11328;53.928;18.522;2022-12-07T14:39:09;98895.00;;;3.20
22322;BMP180;11328;53.928;18.522;2022-12-07T14:41:39;98894.00;;;3.10
22322;BMP180;11328;53.928;18.522;2022-12-07T14:44:24;98889.00;;;3.10
22322;BMP180;11328;53.928;18.522;2022-12-07T14:46:59;98887.00;;;3.10
22322;BMP180;11328;53.928;18.522;2022-12-07T14:49:46;98889.00;;;3.10
22322;BMP180;11328;53.928;18.522;2022-12-07T14:52:26;98860.00;;;3.00
22322;BMP180;11328;53.928;18.522;2022-12-07T14:55:26;98873.00;;;3.00
22322;BMP180;11328;53.928;18.522;2022-12-07T14:57:53;98878.00;;;3.00
22322;BMP180;11328;53.928;18.522;2022-12-07T15:00:23;98881.00;;;2.90
22322;BMP180;11328;53.928;18.522;2022-12-07T15:02:52;98883.00;;;3.00
22322;BMP180;11328;53.928;18.522;2022-12-07T15:05:20;98885.00;;;2.90
22322;BMP180;11328;53.928;18.522;2022-12-07T15:07:48;98884.00;;;2.90
22322;BMP180;11328;53.928;18.522;2022-12-07T15:10:25;98879.00;;;2.80
22322;BMP180;11328;53.928;18.522;2022-12-07T15:13:01;98869.00;;;2.80
22322;BMP180;11328;53.928;18.522;2022-12-07T15:15:49;98870.00;;;2.80
22322;BMP180;11328;53.928;18.522;2022-12-07T15:18:17;98869.00;;;2.90
22322;BMP180;11328;53.928;18.522;2022-12-07T15:20:45;98854.00;;;2.90
22322;BMP180;11328;53.928;18.522;2022-12-07T15:23:13;98865.00;;;2.80
22322;BMP180;11328;53.928;18.522;2022-12-07T15:25:48;98863.00;;;2.80
22322;BMP180;11328;53.928;18.522;2022-12-07T15:28:15;98868.00;;;2.80
22322;BMP180;11328;53.928;18.522;2022-12-07T15:30:44;98867.00;;;2.70
22322;BMP180;11328;53.928;18.522;2022-12-07T15:33:13;98877.00;;;2.70
22322;BMP180;11328;53.928;18.522;2022-12-07T15:35:44;98877.00;;;2.60
22322;BMP180;11328;53.928;18.522;2022-12-07T15:38:12;98887.00;;;2.70
22322;BMP180;11328;53.928;18.522;2022-12-07T15:40:39;98874.00;;;2.60
22322;BMP180;11328;53.928;18.522;2022-12-07T15:43:09;98874.00;;;2.60
22322;BMP180;11328;53.928;18.522;2022-12-07T15:45:56;98878.00;;;2.70
22322;BMP180;11328;53.928;18.522;2022-12-07T15:48:23;98880.00;;;2.70
22322;BMP180;11328;53.928;18.522;2022-12-07T15:51:07;98884.00;;;2.60
22322;BMP180;11328;53.928;18.522;2022-12-07T15:53:35;98872.00;;;2.70
22322;BMP180;11328;53.928;18.522;2022-12-07T15:56:07;98873.00;;;2.70
22322;BMP180;11328;53.928;18.522;2022-12-07T15:58:35;98879.00;;;2.60
22322;BMP180;11328;53.928;18.522;2022-12-07T16:01:14;98866.00;;;2.50
22322;BMP180;11328;53.928;18.522;2022-12-07T16:03:44;98870.00;;;2.50
22322;BMP180;11328;53.928;18.522;2022-12-07T16:06:12;98852.00;;;2.50
22322;BMP180;11328;53.928;18.522;2022-12-07T16:08:43;98862.00;;;2.50
22322;BMP180;11328;53.928;18.522;2022-12-07T16:11:12;98871.00;;;2.40
22322;BMP180;11328;53.928;18.522;2022-12-07T16:13:40;98865.00;;;2.40
22322;BMP180;11328;53.928;18.522;2022-12-07T16:16:11;98861.00;;;2.40
22322;BMP180;11328;53.928;18.522;2022-12-07T16:18:41;98866.00;;;2.50
22322;BMP180;11328;53.928;18.522;2022-12-07T16:21:09;98867.00;;;2.50
22322;BMP180;11328;53.928;18.522;2022-12-07T16:35:45;98868.00;;;2.90
22322;BMP180;11328;53.928;18.522;2022-12-07T16:38:11;98860.00;;;2.80
22322;BMP180;11328;53.928;18.522;2022-12-07T16:40:38;98861.00;;;2.70
22322;BMP180;11328;53.928;18.522;2022-12-07T16:43:05;98862.00;;;2.70
22322;BMP180;11328;53.928;18.522;2022-12-07T16:45:33;98864.00;;;2.60
22322;BMP180;11328;53.928;18.522;2022-12-07T16:48:00;98858.00;;;2.60
22322;BMP180;11328;53.928;18.522;2022-12-07T16:50:27;98847.00;;;2.60
22322;BMP180;11328;53.928;18.522;2022-12-07T16:52:54;98856.00;;;2.60
22322;BMP180;11328;53.928;18.522;2022-12-07T16:55:21;98843.00;;;2.60
22322;BMP180;11328;53.928;18.522;2022-12-07T16:57:48;98838.00;;;2.50
22322;BMP180;11328;53.928;18.522;2022-12-07T17:00:15;98855.00;;;2.50
22322;BMP180;11328;53.928;18.522;2022-12-07T17:02:42;98845.00;;;2.60
22322;BMP180;11328;53.928;18.522;2022-12-07T17:05:09;98857.00;;;2.50
22322;BMP180;11328;53.928;18.522;2022-12-07T17:07:36;98843.00;;;2.60
22322;BMP180;11328;53.928;18.522;2022-12-07T17:10:04;98844.00;;;2.50
22322;BMP180;11328;53.928;18.522;2022-12-07T17:12:31;98852.00;;;2.50
22322;BMP180;11328;53.928;18.522;2022-12-07T17:14:58;98851.00;;;2.60
22322;BMP180;11328;53.928;18.522;2022-12-07T17:17:58;98856.00;;;2.50
22322;BMP180;11328;53.928;18.522;2022-12-07T17:20:26;98840.00;;;2.50
22322;BMP180;11328;53.928;18.522;2022-12-07T17:22:53;98853.00;;;2.60
22322;BMP180;11328;53.928;18.522;2022-12-07T17:25:21;98845.00;;;2.60
22322;BMP180;11328;53.928;18.522;2022-12-07T17:27:47;98853.00;;;2.60
22322;BMP180;11328;53.928;18.522;2022-12-07T17:30:15;98849.00;;;2.60
22322;BMP180;11328;53.928;18.522;2022-12-07T17:32:42;98855.00;;;2.80
22322;BMP180;11328;53.928;18.522;2022-12-07T17:35:09;98857.00;;;2.70
22322;BMP180;11328;53.928;18.522;2022-12-07T17:37:36;98845.00;;;2.70
22322;BMP180;11328;53.928;18.522;2022-12-07T17:40:05;98861.00;;;2.60
22322;BMP180;11328;53.928;18.522;2022-12-07T17:42:32;98870.00;;;2.60
22322;BMP180;11328;53.928;18.522;2022-12-07T17:45:13;98861.00;;;2.70
22322;BMP180;11328;53.928;18.522;2022-12-07T17:47:40;98831.00;;;2.60
22322;BMP180;11328;53.928;18.522;2022-12-07T17:50:09;98862.00;;;2.50
22322;BMP180;11328;53.928;18.522;2022-12-07T17:52:40;98866.00;;;2.60
22322;BMP180;11328;53.928;18.522;2022-12-07T17:55:25;98871.00;;;2.60
22322;BMP180;11328;53.928;18.522;2022-12-07T17:57:52;98873.00;;;2.60
22322;BMP180;11328;53.928;18.522;2022-12-07T18:00:19;98870.00;;;2.50
22322;BMP180;11328;53.928;18.522;2022-12-07T18:02:46;98866.00;;;2.60
22322;BMP180;11328;53.928;18.522;2022-12-07T18:05:13;98863.00;;;2.60
22322;BMP180;11328;53.928;18.522;2022-12-07T18:07:40;98863.00;;;2.70
22322;BMP180;11328;53.928;18.522;2022-12-07T18:10:08;98865.00;;;2.80
22322;BMP180;11328;53.928;18.522;2022-12-07T18:12:38;98857.00;;;2.70
22322;BMP180;11328;53.928;18.522;2022-12-07T18:15:14;98865.00;;;2.70
22322;BMP180;11328;53.928;18.522;2022-12-07T18:17:41;98859.00;;;2.70
22322;BMP180;11328;53.928;18.522;2022-12-07T18:20:09;98865.00;;;2.70
22322;BMP180;11328;53.928;18.522;2022-12-07T18:22:36;98858.00;;;2.70
22322;BMP180;11328;53.928;18.522;2022-12-07T18:25:06;98867.00;;;2.70
22322;BMP180;11328;53.928;18.522;2022-12-07T18:27:33;98865.00;;;2.80
22322;BMP180;11328;53.928;18.522;2022-12-07T18:30:00;98862.00;;;2.70
22322;BMP180;11328;53.928;18.522;2022-12-07T18:32:27;98868.00;;;2.70
22322;BMP180;11328;53.928;18.522;2022-12-07T18:34:56;98870.00;;;2.70
22322;BMP180;11328;53.928;18.522;2022-12-07T18:37:23;98871.00;;;2.70
22322;BMP180;11328;53.928;18.522;2022-12-07T18:39:53;98866.00;;;2.70
22322;BMP180;11328;53.928;18.522;2022-12-07T18:42:21;98843.00;;;2.60
22322;BMP180;11328;53.928;18.522;2022-12-07T18:44:48;98858.00;;;2.50
22322;BMP180;11328;53.928;18.522;2022-12-07T18:47:15;98854.00;;;2.60
22322;BMP180;11328;53.928;18.522;2022-12-07T18:49:42;98825.00;;;2.60
22322;BMP180;11328;53.928;18.522;2022-12-07T18:52:09;98848.00;;;2.50
22322;BMP180;11328;53.928;18.522;2022-12-07T18:54:36;98870.00;;;2.50
22322;BMP180;11328;53.928;18.522;2022-12-07T18:57:03;98866.00;;;2.40
22322;BMP180;11328;53.928;18.522;2022-12-07T18:59:30;98861.00;;;2.50
22322;BMP180;11328;53.928;18.522;2022-12-07T19:02:12;98866.00;;;2.50
22322;BMP180;11328;53.928;18.522;2022-12-07T19:04:39;98841.00;;;2.50
22322;BMP180;11328;53.928;18.522;2022-12-07T19:07:06;98861.00;;;2.50
22322;BMP180;11328;53.928;18.522;2022-12-07T19:09:33;98860.00;;;2.50